Time;durP1;ratioP1;P1;durP2;ratioP2;P2;SDS_P1;SDS_P2;PMS_P1;PMS_P2;Temp;Humidity;BMP_temperature;BMP_pressure;BME280_temperature;BME280_humidity;BME280_pressure;Samples;Min_cycle;Max_cycle;Signal;HPM_P1;HPM_P2
2022/04/14 00:01:27;;;;;;;17.27;8.82;;;;;;;9.45;56.15;100344.78;4358469;32;34969;-80
2022/04/14 00:04:14;;;;;;;16.23;9.10;;;;;;;9.34;56.88;100343.22;4366969;32;35630;-80
2022/04/14 00:07:04;;;;;;;19.05;9.25;;;;;;;9.07;57.84;100342.88;4379451;32;34196;-80
2022/04/14 00:09:50;;;;;;;14.50;8.48;;;;;;;9.08;58.03;100341.75;4368431;32;34716;-80
2022/04/14 00:12:37;;;;;;;16.23;8.63;;;;;;;9.36;57.22;100340.19;4367599;32;35113;-80
2022/04/14 00:15:23;;;;;;;12.35;7.97;;;;;;;8.84;58.51;100338.91;4363606;32;34717;-80
2022/04/14 00:18:09;;;;;;;15.80;8.68;;;;;;;9.00;58.31;100332.25;4373033;32;35110;-80
2022/04/14 00:20:56;;;;;;;15.80;8.18;;;;;;;9.27;57.71;100337.25;4341594;32;35430;-80
2022/04/14 00:23:41;;;;;;;16.48;8.23;;;;;;;9.39;56.75;100332.25;4365032;32;35949;-80
2022/04/14 00:26:28;;;;;;;17.77;8.20;;;;;;;9.14;57.30;100338.72;4371249;32;34657;-80
2022/04/14 00:29:14;;;;;;;18.70;8.75;;;;;;;8.84;58.44;100333.44;4357959;32;34245;-80
2022/04/14 00:32:00;;;;;;;15.68;8.60;;;;;;;9.10;57.97;100334.09;4377723;32;34757;-80
2022/04/14 00:34:46;;;;;;;14.80;8.05;;;;;;;9.19;57.28;100337.84;4369315;32;36006;-80
2022/04/14 00:37:33;;;;;;;13.05;8.20;;;;;;;9.07;57.49;100338.22;4337846;33;34669;-80
2022/04/14 00:40:19;;;;;;;15.52;8.35;;;;;;;8.99;57.86;100342.37;4381389;32;35123;-80
2022/04/14 00:43:05;;;;;;;15.88;8.30;;;;;;;9.10;57.73;100339.56;4370022;32;34629;-80
2022/04/14 00:45:51;;;;;;;16.62;8.50;;;;;;;8.94;57.98;100331.47;4376118;32;34992;-80
2022/04/14 00:48:38;;;;;;;13.82;8.38;;;;;;;8.93;58.02;100338.00;4378686;32;34783;-80
2022/04/14 00:51:24;;;;;;;13.32;8.25;;;;;;;8.80;58.75;100332.37;4373821;32;35356;-80
2022/04/14 00:54:11;;;;;;;16.10;7.95;;;;;;;8.73;58.93;100328.03;4376194;32;35568;-80
2022/04/14 00:57:01;;;;;;;15.05;8.30;;;;;;;8.59;59.39;100326.19;4371395;32;35897;-80
2022/04/14 00:59:48;;;;;;;14.63;8.63;;;;;;;8.28;60.27;100326.28;4350187;32;34757;-80
2022/04/14 01:02:34;;;;;;;14.52;8.23;;;;;;;8.32;60.86;100330.12;4366702;32;34345;-80
2022/04/14 01:05:21;;;;;;;13.15;7.35;;;;;;;8.53;60.06;100328.13;4373749;32;34640;-80
2022/04/14 01:08:08;;;;;;;13.38;7.35;;;;;;;8.66;57.99;100332.19;4353843;32;34956;-80
2022/04/14 01:10:55;;;;;;;11.80;7.28;;;;;;;8.53;57.92;100331.69;4365559;32;34667;-80
2022/04/14 01:13:41;;;;;;;16.15;7.78;;;;;;;8.42;58.55;100326.53;4363890;32;34267;-80
2022/04/14 01:16:27;;;;;;;14.32;7.78;;;;;;;8.32;59.16;100330.12;4367463;32;34688;-80
2022/04/14 01:19:14;;;;;;;14.55;7.25;;;;;;;8.17;59.59;100332.88;4383952;32;35948;-80
2022/04/14 01:22:27;;;;;;;14.10;6.95;;;;;;;8.18;59.66;100334.53;4376895;32;34733;-80
2022/04/14 01:25:13;;;;;;;14.70;7.60;;;;;;;8.32;58.57;100328.19;4368413;32;34216;-80
2022/04/14 01:27:59;;;;;;;12.70;7.32;;;;;;;8.36;58.35;100322.97;4376554;32;35394;-80
2022/04/14 01:30:46;;;;;;;10.93;6.60;;;;;;;8.29;58.64;100326.03;4369464;32;35958;-80
2022/04/14 01:33:32;;;;;;;13.65;7.37;;;;;;;8.37;58.72;100324.63;4364368;32;34685;-80
2022/04/14 01:36:19;;;;;;;13.75;7.47;;;;;;;8.19;59.04;100325.25;4377115;32;34236;-79
2022/04/14 01:39:08;;;;;;;12.40;7.15;;;;;;;8.09;59.23;100324.19;4378561;32;35586;-80
2022/04/14 01:41:54;;;;;;;13.05;7.03;;;;;;;8.08;59.24;100328.03;4356032;32;35938;-80
2022/04/14 01:44:40;;;;;;;9.93;6.55;;;;;;;8.36;57.91;100336.63;4371778;32;34877;-80
2022/04/14 01:47:26;;;;;;;13.07;6.82;;;;;;;8.34;58.01;100338.84;4369107;32;34383;-80
2022/04/14 01:50:14;;;;;;;11.98;7.37;;;;;;;8.03;58.90;100325.28;4373826;32;35549;-80
2022/04/14 01:53:00;;;;;;;16.10;6.85;;;;;;;8.03;59.31;100330.75;4362321;32;36013;-80
2022/04/14 01:55:47;;;;;;;13.40;7.70;;;;;;;8.18;58.76;100335.34;4357544;32;34721;-80
2022/04/14 01:58:33;;;;;;;13.25;6.78;;;;;;;8.16;58.22;100336.72;4378590;32;34189;-80
2022/04/14 02:01:20;;;;;;;12.20;6.87;;;;;;;7.74;59.16;100332.44;4355590;32;34581;-80
2022/04/14 02:04:07;;;;;;;11.98;6.80;;;;;;;7.86;59.56;100336.53;4372763;32;34962;-80
2022/04/14 02:06:53;;;;;;;11.35;6.12;;;;;;;7.87;59.38;100329.16;4356043;32;34628;-80
2022/04/14 02:09:40;;;;;;;14.15;7.05;;;;;;;7.97;58.93;100331.87;4377848;32;35134;-80
2022/04/14 02:12:26;;;;;;;10.85;6.30;;;;;;;6.41;63.40;100343.19;4351434;32;34722;-80
2022/04/14 02:15:13;;;;;;;12.85;6.22;;;;;;;6.64;62.84;100337.25;4361950;32;34941;-80
2022/04/14 02:17:59;;;;;;;11.93;6.37;;;;;;;6.41;63.28;100332.28;4373210;32;35656;-80
2022/04/14 02:20:45;;;;;;;9.73;5.97;;;;;;;7.06;61.34;100335.44;4357763;32;35056;-80
2022/04/14 02:23:32;;;;;;;13.00;6.03;;;;;;;7.37;60.55;100339.84;4347068;32;35549;-80
2022/04/14 02:26:19;;;;;;;12.43;5.28;;;;;;;7.63;59.54;100327.00;4368690;32;35966;-80
2022/04/14 02:29:05;;;;;;;10.73;6.18;;;;;;;7.12;59.56;100337.09;4374357;32;34669;-80
2022/04/14 02:31:57;;;;;;;11.32;6.05;;;;;;;6.73;61.64;100335.66;4369529;32;34168;-79
2022/04/14 02:34:44;;;;;;;12.95;5.70;;;;;;;6.28;63.35;100344.47;4380823;32;34627;-80
2022/04/14 02:37:30;;;;;;;10.93;5.40;;;;;;;7.02;61.25;100347.97;4369653;32;34908;-79
2022/04/14 02:40:16;;;;;;;8.18;4.90;;;;;;;7.33;59.34;100354.28;4364545;32;35784;-80
2022/04/14 02:43:02;;;;;;;9.07;5.18;;;;;;;6.25;62.20;100345.81;4356117;32;34366;-80
2022/04/14 02:45:49;;;;;;;10.77;5.40;;;;;;;6.79;60.48;100346.56;4370369;32;35678;-80
2022/04/14 02:48:35;;;;;;;10.60;4.87;;;;;;;6.84;60.46;100341.13;4360234;32;35631;-79
2022/04/14 02:51:22;;;;;;;9.40;4.95;;;;;;;7.37;58.34;100334.38;4383091;32;34632;-79
2022/04/14 02:54:07;;;;;;;11.35;4.85;;;;;;;7.48;57.89;100328.91;4371119;32;34161;-79
2022/04/14 02:56:54;;;;;;;10.60;5.47;;;;;;;7.29;58.99;100337.66;4358864;32;34545;-79
2022/04/14 02:59:40;;;;;;;11.60;5.70;;;;;;;7.00;60.03;100320.97;4360823;32;35009;-79
2022/04/14 03:02:26;;;;;;;9.07;5.50;;;;;;;7.19;59.88;100327.53;4369058;32;35019;-79
2022/04/14 03:05:13;;;;;;;11.48;5.93;;;;;;;7.07;60.55;100321.56;4358806;32;35029;-80
2022/04/14 03:07:59;;;;;;;11.23;5.95;;;;;;;7.29;60.07;100337.66;4364977;32;34636;-79
2022/04/14 03:10:45;;;;;;;11.15;6.18;;;;;;;7.21;60.36;100330.81;4368846;32;35103;-80
2022/04/14 03:13:32;;;;;;;11.95;6.07;;;;;;;6.66;62.08;100329.66;4362081;32;34710;-80
2022/04/14 03:16:18;;;;;;;11.05;6.37;;;;;;;6.62;62.61;100333.97;4371421;32;34342;-79
2022/04/14 03:19:05;;;;;;;10.32;5.72;;;;;;;4.97;67.90;100333.97;4379006;32;35550;-79
2022/04/14 03:21:51;;;;;;;13.70;6.28;;;;;;;5.28;67.70;100336.16;4367463;32;35988;-79
2022/04/14 03:24:38;;;;;;;12.90;5.82;;;;;;;5.66;66.40;100326.94;4374705;32;34626;-79
2022/04/14 03:27:24;;;;;;;10.95;5.55;;;;;;;6.42;62.88;100339.38;4367053;32;35078;-78
2022/04/14 03:30:10;;;;;;;12.02;5.53;;;;;;;6.79;61.38;100333.75;4370990;32;34743;-78
2022/04/14 03:32:56;;;;;;;11.82;6.15;;;;;;;6.83;61.03;100323.12;4364185;32;35932;-79
2022/04/14 03:35:43;;;;;;;12.00;6.05;;;;;;;6.74;61.37;100331.84;4352450;32;35253;-78
2022/04/14 03:38:30;;;;;;;10.63;6.35;;;;;;;6.30;63.44;100336.88;4368683;32;34535;-78
2022/04/14 03:41:20;;;;;;;11.00;6.25;;;;;;;6.33;63.61;100343.69;4350438;32;35642;-78
2022/04/14 03:44:06;;;;;;;13.20;6.78;;;;;;;6.42;63.72;100344.81;4360240;32;35026;-78
2022/04/14 03:46:53;;;;;;;11.88;6.85;;;;;;;6.55;63.11;100341.59;4364459;32;34322;-79
2022/04/14 03:49:39;;;;;;;10.95;6.25;;;;;;;6.44;62.86;100350.81;4350587;32;35097;-78
2022/04/14 03:52:25;;;;;;;10.32;5.87;;;;;;;6.38;63.35;100349.16;4341139;32;35628;-78
2022/04/14 03:55:11;;;;;;;14.15;6.60;;;;;;;6.39;63.63;100353.50;4351845;32;34944;-78
2022/04/14 03:57:58;;;;;;;10.65;6.25;;;;;;;6.26;63.80;100346.63;4369459;32;34449;-78
2022/04/14 04:00:44;;;;;;;12.65;6.82;;;;;;;6.47;63.55;100353.81;4365423;32;34250;-78
2022/04/14 04:03:31;;;;;;;10.60;5.75;;;;;;;6.38;63.82;100357.31;4356035;32;36268;-79
2022/04/14 04:06:16;;;;;;;15.20;6.68;;;;;;;6.26;64.21;100352.91;4361824;32;35022;-78
2022/04/14 04:09:03;;;;;;;10.13;6.05;;;;;;;6.43;63.79;100358.16;4366624;32;35520;-78
2022/04/14 04:11:50;;;;;;;12.35;5.87;;;;;;;6.43;63.30;100354.59;4367473;32;35126;-78
2022/04/14 04:14:36;;;;;;;11.15;5.97;;;;;;;6.37;63.34;100347.50;4361134;32;35632;-79
2022/04/14 04:17:22;;;;;;;11.12;5.85;;;;;;;6.54;63.09;100350.84;4366620;32;36100;-78
2022/04/14 04:20:09;;;;;;;11.27;6.32;;;;;;;6.58;62.14;100357.41;4351380;32;34605;-78
2022/04/14 04:22:55;;;;;;;9.90;5.87;;;;;;;6.73;61.61;100356.63;4366995;32;34911;-78
2022/04/14 04:25:41;;;;;;;11.55;6.68;;;;;;;6.98;60.71;100350.44;4370313;32;34569;-78
2022/04/14 04:28:30;;;;;;;15.50;6.43;;;;;;;6.50;61.87;100358.72;4367025;32;35909;-78
2022/04/14 04:31:16;;;;;;;13.27;6.22;;;;;;;6.26;63.23;100352.91;4368685;32;34795;-78
2022/04/14 04:34:02;;;;;;;13.85;6.35;;;;;;;6.40;63.64;100355.13;4362016;32;33871;-79
2022/04/14 04:36:49;;;;;;;11.07;6.22;;;;;;;6.46;62.35;100357.62;4375042;32;36081;-78
2022/04/14 04:39:35;;;;;;;15.57;6.80;;;;;;;5.59;65.06;100358.97;4367995;32;34853;-78
2022/04/14 04:42:22;;;;;;;12.45;6.78;;;;;;;5.71;65.74;100356.88;4364411;32;34660;-78
2022/04/14 04:45:08;;;;;;;11.50;6.22;;;;;;;6.32;63.29;100361.91;4362780;32;33759;-78
2022/04/14 04:47:55;;;;;;;10.45;6.40;;;;;;;6.48;62.17;100368.25;4364982;32;34624;-78
2022/04/14 04:50:41;;;;;;;12.63;6.72;;;;;;;6.41;62.42;100371.22;4363355;32;36020;-78
2022/04/14 04:53:27;;;;;;;13.05;7.00;;;;;;;6.84;60.08;100368.38;4374325;32;34223;-78
2022/04/14 04:56:14;;;;;;;16.80;6.30;;;;;;;6.97;59.30;100370.56;4358320;32;33756;-78
2022/04/14 04:59:00;;;;;;;12.55;5.62;;;;;;;6.84;60.09;100379.28;4375823;32;34678;-78
2022/04/14 05:01:46;;;;;;;11.40;5.95;;;;;;;6.86;60.38;100377.06;4376129;32;35910;-78
2022/04/14 05:04:32;;;;;;;12.02;5.75;;;;;;;6.83;60.24;100380.34;4357347;32;35458;-78
2022/04/14 05:07:18;;;;;;;13.20;5.65;;;;;;;6.76;61.09;100384.12;4375767;32;33788;-78
2022/04/14 05:10:05;;;;;;;13.18;6.10;;;;;;;7.15;59.38;100391.88;4374236;32;34589;-78
2022/04/14 05:12:51;;;;;;;11.30;6.15;;;;;;;6.96;59.91;100385.28;4350132;32;35887;-78
2022/04/14 05:15:38;;;;;;;13.35;6.53;;;;;;;5.81;64.62;100386.88;4361217;32;34721;-78
2022/04/14 05:18:24;;;;;;;17.00;6.35;;;;;;;6.87;60.87;100395.88;4359609;32;34915;-78
2022/04/14 05:21:10;;;;;;;12.07;6.62;;;;;;;6.95;60.48;100387.19;4368495;32;35554;-78
2022/04/14 05:23:56;;;;;;;14.82;6.15;;;;;;;5.59;65.41;100392.41;4346476;32;35014;-78
2022/04/14 05:26:43;;;;;;;13.10;6.25;;;;;;;5.25;66.83;100393.75;4362434;32;35485;-78
2022/04/14 05:29:30;;;;;;;16.77;6.50;;;;;;;5.22;65.94;100400.50;4375503;32;35307;-78
2022/04/14 05:32:17;;;;;;;13.77;6.82;;;;;;;5.70;63.77;100387.88;4362440;32;34678;-78
2022/04/14 05:35:06;;;;;;;10.85;5.55;;;;;;;4.57;69.74;100401.41;4375249;32;34990;-78
2022/04/14 05:37:52;;;;;;;13.48;5.72;;;;;;;6.09;64.36;100401.25;4368463;32;34298;-78
2022/04/14 05:40:41;;;;;;;11.15;5.32;;;;;;;6.56;61.93;100400.41;4367358;32;34239;-78
2022/04/14 05:43:29;;;;;;;13.00;6.47;;;;;;;6.60;61.44;100409.66;4374084;32;35566;-78
2022/04/14 05:46:16;;;;;;;13.80;5.37;;;;;;;7.29;59.22;100407.72;4368776;32;35895;-79
2022/04/14 05:49:02;;;;;;;12.10;5.72;;;;;;;7.57;58.73;100407.19;4367909;32;34670;-79
2022/04/14 05:51:48;;;;;;;13.52;5.82;;;;;;;7.98;58.35;100400.91;4345973;32;34613;-79
2022/04/14 05:54:35;;;;;;;12.43;6.18;;;;;;;7.87;58.86;100405.53;4355349;32;35470;-78
2022/04/14 05:57:22;;;;;;;11.05;5.95;;;;;;;8.39;57.35;100401.66;4364963;32;34977;-79
2022/04/14 06:00:09;;;;;;;9.10;4.75;;;;;;;8.22;56.96;100392.94;4367842;32;35031;-78
2022/04/14 06:02:56;;;;;;;10.07;5.28;;;;;;;7.73;58.18;100397.09;4349093;32;33772;-79
2022/04/14 06:05:43;;;;;;;11.65;5.40;;;;;;;8.56;56.17;100393.94;4352955;32;35479;-78
2022/04/14 06:08:29;;;;;;;13.48;5.75;;;;;;;8.17;57.51;100395.66;4362617;32;35079;-78
2022/04/14 06:11:15;;;;;;;11.73;5.90;;;;;;;8.07;58.93;100393.78;4366588;32;35595;-78
2022/04/14 06:14:01;;;;;;;9.93;5.28;;;;;;;8.64;57.34;100397.19;4361389;32;33837;-78
2022/04/14 06:16:48;;;;;;;10.73;5.30;;;;;;;7.95;59.48;100388.63;4367724;32;35470;-79
2022/04/14 06:19:34;;;;;;;16.75;6.60;;;;;;;8.58;58.09;100387.41;4383763;32;35008;-78
2022/04/14 06:22:20;;;;;;;12.37;6.18;;;;;;;9.14;57.20;100390.66;4371054;32;35727;-79
2022/04/14 06:25:12;;;;;;;10.80;5.40;;;;;;;9.55;56.84;100397.75;4362011;32;34456;-78
2022/04/14 06:27:58;;;;;;;13.80;6.20;;;;;;;10.12;53.37;100390.69;4367757;32;35048;-78
2022/04/14 06:30:49;;;;;;;13.38;5.55;;;;;;;10.23;50.69;100389.47;4371428;32;34884;-78
2022/04/14 06:33:35;;;;;;;11.77;5.78;;;;;;;10.52;49.65;100385.87;4344133;32;34231;-79
2022/04/14 06:36:21;;;;;;;10.65;5.55;;;;;;;10.83;49.13;100388.25;4361826;32;33703;-78
2022/04/14 06:39:12;;;;;;;12.75;6.22;;;;;;;11.19;47.91;100394.88;4354075;32;34677;-79
2022/04/14 06:41:58;;;;;;;12.90;5.95;;;;;;;11.46;46.73;100387.88;4365327;32;34021;-79
2022/04/14 06:44:45;;;;;;;12.88;6.43;;;;;;;11.78;46.28;100386.25;4354533;32;34687;-78
2022/04/14 06:47:32;;;;;;;13.48;6.43;;;;;;;12.22;46.39;100380.28;4356013;32;34268;-79
2022/04/14 06:50:19;;;;;;;11.35;6.28;;;;;;;12.12;44.91;100380.47;4366341;32;35732;-79
2022/04/14 06:53:05;;;;;;;13.38;6.25;;;;;;;12.67;45.71;100385.19;4373471;32;34651;-79
2022/04/14 06:55:53;;;;;;;14.70;7.05;;;;;;;12.93;43.42;100383.50;4359646;32;34564;-79
2022/04/14 06:58:41;;;;;;;13.10;6.68;;;;;;;12.92;42.68;100387.41;4365869;32;34163;-79
2022/04/14 07:01:27;;;;;;;15.65;6.70;;;;;;;13.15;41.93;100381.91;4361738;32;34320;-79
2022/04/14 07:04:14;;;;;;;12.77;6.43;;;;;;;13.69;41.37;100380.13;4367586;32;35024;-79
2022/04/14 07:07:00;;;;;;;12.65;5.97;;;;;;;13.80;41.22;100378.72;4350494;32;35537;-79
2022/04/14 07:09:46;;;;;;;15.95;6.75;;;;;;;13.67;41.69;100379.63;4356451;32;34140;-79
2022/04/14 07:12:32;;;;;;;12.65;5.53;;;;;;;14.26;40.48;100377.53;4364156;32;34211;-78
2022/04/14 07:15:19;;;;;;;12.93;5.43;;;;;;;14.48;38.60;100371.12;4361666;32;34555;-78
2022/04/14 07:18:05;;;;;;;11.05;5.93;;;;;;;14.76;37.68;100374.47;4360225;32;35525;-79
2022/04/14 07:20:52;;;;;;;9.50;5.35;;;;;;;14.80;37.00;100372.72;4368869;32;34453;-78
2022/04/14 07:23:39;;;;;;;14.25;5.12;;;;;;;15.04;34.73;100382.50;4365415;32;35527;-79
2022/04/14 07:26:25;;;;;;;9.15;5.00;;;;;;;14.79;34.62;100373.81;4356297;32;34538;-78
2022/04/14 07:29:11;;;;;;;11.75;5.65;;;;;;;15.20;33.35;100378.12;4365646;32;35423;-79
2022/04/14 07:31:58;;;;;;;14.65;5.57;;;;;;;15.26;32.79;100382.34;4346841;32;33119;-78
2022/04/14 07:34:44;;;;;;;10.75;5.22;;;;;;;15.37;33.09;100379.25;4349727;32;34276;-78
2022/04/14 07:37:31;;;;;;;10.77;5.55;;;;;;;15.67;32.04;100383.78;4358992;32;34961;-78
2022/04/14 07:40:19;;;;;;;12.48;5.35;;;;;;;15.74;32.33;100384.12;4351459;32;34292;-78
2022/04/14 07:43:05;;;;;;;10.85;5.03;;;;;;;15.70;31.77;100379.59;4369768;32;33802;-78
2022/04/14 07:45:52;;;;;;;9.57;4.40;;;;;;;15.83;31.35;100383.31;4374373;32;35478;-78
2022/04/14 07:48:38;;;;;;;10.25;4.72;;;;;;;16.03;30.34;100385.38;4364740;32;35095;-78
2022/04/14 07:51:24;;;;;;;9.23;4.80;;;;;;;16.26;30.06;100374.88;4363183;32;34288;-79
2022/04/14 07:54:11;;;;;;;12.45;4.78;;;;;;;16.24;29.73;100390.19;4368891;32;34143;-80
2022/04/14 07:56:56;;;;;;;9.07;4.40;;;;;;;16.15;28.36;100379.16;4346157;32;34577;-80
2022/04/14 07:59:43;;;;;;;8.55;4.53;;;;;;;16.26;26.90;100377.66;4361672;32;36078;-81
2022/04/14 08:02:29;;;;;;;8.93;4.32;;;;;;;16.79;28.65;100378.22;4364623;32;34647;-80
2022/04/14 08:05:15;;;;;;;5.00;2.40;;;;;;;16.39;25.51;100381.34;4373407;32;35108;-81
2022/04/14 08:08:06;;;;;;;7.28;2.90;;;;;;;16.60;21.28;100367.59;4364939;32;35631;-81
2022/04/14 08:10:52;;;;;;;5.07;2.87;;;;;;;16.58;21.97;100376.19;4356559;32;34632;-79
2022/04/14 08:13:40;;;;;;;6.20;2.90;;;;;;;16.50;22.51;100382.59;4359347;32;34378;-79
2022/04/14 08:16:26;;;;;;;5.18;2.87;;;;;;;16.83;22.57;100381.97;4356413;32;35200;-79
2022/04/14 08:19:13;;;;;;;10.55;3.92;;;;;;;16.67;21.79;100384.47;4361006;32;34770;-79
2022/04/14 08:21:59;;;;;;;7.47;3.72;;;;;;;16.73;23.04;100379.53;4349132;32;35980;-80
2022/04/14 08:24:51;;;;;;;11.07;3.50;;;;;;;16.81;23.51;100375.94;4360105;32;34599;-79
2022/04/14 08:27:38;;;;;;;7.97;3.65;;;;;;;17.10;23.34;100377.88;4360360;32;34732;-79
2022/04/14 08:30:26;;;;;;;9.70;4.72;;;;;;;17.06;23.73;100383.28;4364213;32;35588;-80
2022/04/14 08:33:13;;;;;;;7.05;4.35;;;;;;;17.35;24.21;100378.81;4348014;32;35988;-80
2022/04/14 08:35:59;;;;;;;8.20;5.10;;;;;;;17.15;26.06;100385.16;4366211;32;35483;-81
2022/04/14 08:38:46;;;;;;;10.88;5.03;;;;;;;17.58;25.29;100375.69;4349188;32;34127;-80
2022/04/14 08:41:34;;;;;;;12.63;5.53;;;;;;;17.75;24.70;100384.62;4364513;32;34559;-80
2022/04/14 08:44:22;;;;;;;10.15;4.50;;;;;;;17.78;23.65;100374.88;4370394;32;34920;-79
2022/04/14 08:47:08;;;;;;;9.88;4.78;;;;;;;17.92;22.98;100375.38;4352505;32;35711;-80
2022/04/14 08:49:59;;;;;;;7.43;3.92;;;;;;;17.77;23.87;100379.56;4363470;32;34199;-79
2022/04/14 08:52:45;;;;;;;9.68;4.43;;;;;;;17.02;22.88;100371.25;4374218;32;35319;-80
2022/04/14 08:55:32;;;;;;;9.65;4.62;;;;;;;16.68;23.20;100365.87;4348734;32;36071;-80
2022/04/14 08:58:19;;;;;;;12.77;4.20;;;;;;;17.26;24.16;100381.66;4350608;32;35517;-80
2022/04/14 09:01:05;;;;;;;7.82;3.92;;;;;;;17.36;24.72;100377.69;4363367;32;34861;-81
2022/04/14 09:04:11;;;;;;;7.45;3.30;;;;;;;17.41;23.39;100371.12;4376936;32;34611;-80
2022/04/14 09:06:57;;;;;;;10.05;3.83;;;;;;;17.60;23.70;100382.50;4364269;32;35703;-80
2022/04/14 09:09:50;;;;;;;7.87;3.40;;;;;;;17.54;23.90;100378.34;4366207;32;35782;-81
2022/04/14 09:12:37;;;;;;;8.18;4.10;;;;;;;17.41;23.34;100382.19;4366581;32;35309;-81
2022/04/14 09:15:24;;;;;;;10.35;3.40;;;;;;;17.70;23.54;100381.28;4356439;32;34445;-81
2022/04/14 09:18:14;;;;;;;9.05;4.80;;;;;;;17.47;23.41;100378.88;4365186;32;35026;-81
2022/04/14 09:21:05;;;;;;;7.55;3.40;;;;;;;17.70;23.78;100378.50;4350363;32;34606;-81
2022/04/14 09:23:52;;;;;;;9.80;3.75;;;;;;;18.11;22.49;100371.28;4370019;32;33828;-81
2022/04/14 09:26:39;;;;;;;8.80;3.65;;;;;;;18.29;23.70;100369.91;4360764;32;35211;-80
2022/04/14 09:29:31;;;;;;;6.60;3.50;;;;;;;18.06;24.08;100369.50;4356061;32;34855;-81
2022/04/14 09:32:30;;;;;;;9.75;4.10;;;;;;;18.50;23.25;100378.12;4362432;32;34229;-81
2022/04/14 09:35:21;;;;;;;6.68;3.55;;;;;;;17.87;23.28;100383.94;4363641;32;34111;-81
2022/04/14 09:38:08;;;;;;;6.18;3.35;;;;;;;18.01;23.07;100371.69;4360557;32;35284;-81
2022/04/14 09:40:55;;;;;;;8.23;3.50;;;;;;;18.23;23.48;100368.50;4364183;32;35937;-81
2022/04/14 09:43:53;;;;;;;6.57;3.47;;;;;;;18.56;21.38;100367.62;4359977;32;33515;-81
2022/04/14 09:46:47;;;;;;;8.38;3.92;;;;;;;18.84;21.90;100354.66;4352344;32;33782;-82
2022/04/14 09:49:39;;;;;;;7.93;3.20;;;;;;;18.83;21.90;100358.59;4360973;32;34476;-82
2022/04/14 09:52:27;;;;;;;8.32;3.50;;;;;;;19.37;21.82;100362.16;4357458;32;35972;-82
2022/04/14 09:55:15;;;;;;;7.35;3.10;;;;;;;19.63;21.26;100359.72;4348804;32;34192;-82
2022/04/14 09:58:11;;;;;;;7.45;2.95;;;;;;;19.64;19.97;100357.78;4358587;32;33135;-82
2022/04/14 10:00:58;;;;;;;9.25;3.62;;;;;;;19.16;20.02;100356.81;4351870;32;34343;-82
2022/04/14 10:03:44;;;;;;;7.28;3.60;;;;;;;19.43;21.44;100356.00;4360414;32;36066;-82
2022/04/14 10:06:31;;;;;;;7.97;3.35;;;;;;;19.93;20.51;100353.84;4370690;32;34797;-82
2022/04/14 10:09:27;;;;;;;8.98;3.70;;;;;;;20.14;21.41;100346.03;4381213;32;34416;-82
2022/04/14 10:12:19;;;;;;;8.65;3.80;;;;;;;19.83;20.49;100354.34;4361356;32;35502;-82
2022/04/14 10:15:07;;;;;;;8.45;3.55;;;;;;;19.89;19.79;100347.34;4362872;32;35692;-82
2022/04/14 10:17:53;;;;;;;11.02;3.72;;;;;;;19.89;21.34;100342.59;4369739;32;33623;-82
2022/04/14 10:20:46;;;;;;;5.72;3.45;;;;;;;19.19;21.12;100342.22;4354852;32;33803;-82
2022/04/14 10:23:33;;;;;;;10.73;4.35;;;;;;;20.25;21.43;100337.97;4366783;32;36071;-83
2022/04/14 10:26:21;;;;;;;7.68;3.85;;;;;;;20.24;21.44;100336.34;4356425;32;35491;-83
2022/04/14 10:29:08;;;;;;;7.22;3.42;;;;;;;20.04;20.49;100324.31;4378444;32;34734;-82
2022/04/14 10:31:54;;;;;;;8.13;3.40;;;;;;;20.66;20.65;100325.47;4374853;32;34199;-83
2022/04/14 10:34:41;;;;;;;7.62;3.53;;;;;;;21.22;19.63;100323.50;4356940;32;34544;-83
2022/04/14 10:37:30;;;;;;;11.50;3.53;;;;;;;21.32;19.60;100317.34;4365626;32;35909;-82
2022/04/14 10:40:17;;;;;;;5.87;3.40;;;;;;;21.24;19.34;100310.81;4370206;32;35437;-82
2022/04/14 10:43:07;;;;;;;8.63;3.47;;;;;;;20.54;20.17;100313.62;4353525;32;34692;-82
2022/04/14 10:45:58;;;;;;;7.35;3.35;;;;;;;21.65;19.21;100310.44;4353237;32;34447;-82
2022/04/14 10:48:46;;;;;;;7.45;3.62;;;;;;;21.95;19.24;100311.37;4371992;32;35171;-83
2022/04/14 10:51:32;;;;;;;5.40;3.12;;;;;;;22.34;18.47;100310.44;4357857;32;35270;-82
2022/04/14 10:54:19;;;;;;;6.90;3.45;;;;;;;22.50;18.37;100307.53;4377833;32;34985;-82
2022/04/14 10:57:05;;;;;;;7.78;4.30;;;;;;;22.46;19.14;100301.87;4361920;32;34617;-79
2022/04/14 10:59:54;;;;;;;7.93;4.15;;;;;;;22.40;18.44;100304.19;4375481;32;35862;-80
2022/04/14 11:03:11;;;;;;;10.00;4.60;;;;;;;21.29;19.48;100304.16;4377504;32;35766;-80
2022/04/14 11:05:57;;;;;;;8.07;4.68;;;;;;;22.11;18.50;100304.87;4376855;32;35028;-80
2022/04/14 11:08:46;;;;;;;11.57;4.00;;;;;;;22.06;17.76;100305.16;4364972;32;34326;-81
2022/04/14 11:11:58;;;;;;;12.63;4.18;;;;;;;22.33;19.02;100304.06;4366984;32;35544;-80
2022/04/14 11:14:57;;;;;;;8.23;4.40;;;;;;;22.42;19.24;100304.59;4369211;32;34650;-80
2022/04/14 11:17:53;;;;;;;10.43;4.60;;;;;;;22.93;18.10;100292.16;4348952;32;35077;-81
2022/04/14 11:20:54;;;;;;;6.75;3.83;;;;;;;21.97;17.97;100294.25;4369025;32;34228;-81
2022/04/14 11:23:41;;;;;;;9.88;5.03;;;;;;;22.77;19.43;100281.19;4366986;32;35199;-81
2022/04/14 11:26:35;;;;;;;11.52;3.95;;;;;;;23.42;18.53;100284.81;4345835;32;34517;-81
2022/04/14 11:29:31;;;;;;;6.62;3.80;;;;;;;23.77;17.92;100290.81;4366555;32;34294;-80
2022/04/14 11:32:37;;;;;;;6.85;3.80;;;;;;;23.70;17.74;100281.50;4368446;32;34362;-82
2022/04/14 11:35:47;;;;;;;5.80;3.70;;;;;;;24.50;14.75;100273.41;4359777;32;35141;-81
2022/04/14 11:38:55;;;;;;;9.90;3.60;;;;;;;24.28;17.18;100274.44;4346824;32;34289;-81
2022/04/14 11:41:46;;;;;;;6.50;3.85;;;;;;;24.81;16.21;100271.19;4366843;32;35062;-81
2022/04/14 11:44:32;;;;;;;6.35;3.97;;;;;;;25.48;15.16;100272.69;4375210;32;34825;-82
2022/04/14 11:47:19;;;;;;;10.05;3.83;;;;;;;24.77;15.33;100262.78;4366309;32;34547;-82
2022/04/14 11:50:06;;;;;;;10.73;3.97;;;;;;;24.90;15.63;100263.22;4351409;32;35450;-83
2022/04/14 11:52:59;;;;;;;8.32;4.07;;;;;;;24.26;15.80;100271.22;4363678;32;34155;-82
2022/04/14 11:55:45;;;;;;;9.10;3.40;;;;;;;25.11;14.57;100254.13;4360900;32;34500;-82
2022/04/14 11:58:34;;;;;;;9.07;4.22;;;;;;;25.30;15.83;100259.44;4365970;32;35953;-81
2022/04/14 12:01:20;;;;;;;6.55;4.00;;;;;;;24.41;16.17;100258.94;4363669;32;35861;-81
2022/04/14 12:04:07;;;;;;;6.18;3.70;;;;;;;24.60;18.07;100257.87;4363845;32;34469;-81
2022/04/14 12:06:54;;;;;;;7.93;4.32;;;;;;;25.40;15.65;100248.62;4370678;32;35591;-81
2022/04/14 12:09:41;;;;;;;6.97;4.28;;;;;;;25.79;15.73;100254.31;4365064;32;35928;-82
2022/04/14 12:12:33;;;;;;;8.75;4.05;;;;;;;24.78;14.78;100252.38;4359617;32;34504;-82
2022/04/14 12:15:20;;;;;;;8.55;4.50;;;;;;;24.65;16.59;100249.91;4360914;32;34240;-82
2022/04/14 12:18:12;;;;;;;8.93;3.83;;;;;;;23.67;17.16;100241.09;4365696;32;34391;-82
2022/04/14 12:20:58;;;;;;;6.60;4.00;;;;;;;24.47;17.71;100229.38;4358989;32;33949;-82
2022/04/14 12:23:48;;;;;;;6.53;3.45;;;;;;;24.56;17.27;100221.47;4353707;32;34487;-81
2022/04/14 12:26:37;;;;;;;8.52;3.92;;;;;;;25.31;15.70;100218.97;4363414;32;34182;-81
2022/04/14 12:29:24;;;;;;;10.30;4.22;;;;;;;24.90;16.42;100215.59;4375753;32;34491;-81
2022/04/14 12:32:12;;;;;;;5.43;3.60;;;;;;;25.72;14.99;100210.19;4360107;32;35163;-81
2022/04/14 12:34:58;;;;;;;7.22;3.10;;;;;;;25.89;16.02;100207.81;4358652;32;34256;-81
2022/04/14 12:37:45;;;;;;;5.72;3.55;;;;;;;25.42;14.50;100206.97;4347078;32;172457;-80
2022/04/14 12:40:31;;;;;;;5.55;3.20;;;;;;;25.26;16.14;100210.13;4363036;32;35270;-81
2022/04/14 12:43:28;;;;;;;6.93;3.50;;;;;;;25.59;13.74;100197.75;4367102;32;35947;-81
2022/04/14 12:46:24;;;;;;;7.90;3.00;;;;;;;25.61;14.20;100197.34;4366926;32;34451;-80
2022/04/14 12:49:17;;;;;;;6.45;2.83;;;;;;;24.98;15.42;100185.59;4369520;32;34174;-80
2022/04/14 12:52:09;;;;;;;7.30;2.10;;;;;;;24.74;16.58;100179.50;4357447;32;35137;-81
2022/04/14 12:54:56;;;;;;;4.97;2.40;;;;;;;24.89;14.54;100172.75;4367307;32;35968;-81
2022/04/14 12:57:42;;;;;;;8.13;2.47;;;;;;;24.79;14.89;100175.50;4361909;32;34943;-82
2022/04/14 13:00:30;;;;;;;7.57;2.20;;;;;;;24.51;14.45;100174.19;4365945;32;34556;-81